Time;durP1;ratioP1;P1;durP2;ratioP2;P2;SDS_P1;SDS_P2;PMS_P1;PMS_P2;Temp;Humidity;BMP_temperature;BMP_pressure;BME280_temperature;BME280_humidity;BME280_pressure;Samples;Min_cycle;Max_cycle;Signal;HPM_P1;HPM_P2
2023/03/29 00:00:13;;;;;;;4.63;2.63;;;5.70;35.70;;;;;;5029710;28;46412;-65
2023/03/29 00:02:47;;;;;;;5.30;2.33;;;5.70;35.90;;;;;;5027772;28;46899;-66
2023/03/29 00:05:17;;;;;;;4.00;2.30;;;5.70;35.70;;;;;;5025955;28;48188;-66
2023/03/29 00:07:43;;;;;;;3.77;2.07;;;5.70;35.70;;;;;;5028691;28;46618;-64
2023/03/29 00:10:12;;;;;;;3.53;1.80;;;5.80;35.80;;;;;;5029240;28;46464;-65
2023/03/29 00:12:40;;;;;;;5.20;1.87;;;5.80;35.80;;;;;;5027309;28;46348;-65
2023/03/29 00:15:07;;;;;;;2.40;1.53;;;5.90;35.90;;;;;;5026427;28;46454;-65
2023/03/29 00:17:33;;;;;;;4.77;1.50;;;5.90;36.10;;;;;;5032436;28;45848;-65
2023/03/29 00:19:59;;;;;;;2.17;1.37;;;5.80;37.00;;;;;;5026635;28;46402;-66
2023/03/29 00:22:25;;;;;;;3.90;1.60;;;5.70;39.00;;;;;;5026606;28;46628;-65
2023/03/29 00:24:53;;;;;;;4.23;2.20;;;5.60;40.20;;;;;;5023145;28;47195;-65
2023/03/29 00:27:22;;;;;;;2.20;1.30;;;5.40;41.80;;;;;;5031303;28;46384;-66
2023/03/29 00:29:48;;;;;;;2.43;1.47;;;5.30;43.30;;;;;;5037853;28;46420;-65
2023/03/29 00:32:14;;;;;;;4.03;1.60;;;5.20;45.10;;;;;;5031938;28;46369;-66
2023/03/29 00:34:41;;;;;;;4.40;1.77;;;5.30;44.60;;;;;;5031044;28;46482;-65
2023/03/29 00:37:08;;;;;;;2.93;1.87;;;5.30;44.30;;;;;;5034835;28;46292;-65
2023/03/29 00:39:34;;;;;;;2.90;1.70;;;5.40;43.90;;;;;;5032793;28;46295;-65
2023/03/29 00:42:00;;;;;;;7.27;1.80;;;5.40;43.30;;;;;;5032764;28;46603;-66
2023/03/29 00:44:56;;;;;;;2.10;1.30;;;5.50;43.00;;;;;;5034081;28;47187;-65
2023/03/29 00:47:54;;;;;;;4.00;1.60;;;5.50;42.80;;;;;;5031097;28;46382;-65
2023/03/29 00:50:35;;;;;;;6.30;1.63;;;5.60;42.60;;;;;;5029658;28;46294;-64
2023/03/29 00:53:02;;;;;;;2.70;1.80;;;5.60;42.20;;;;;;5030501;28;46393;-66
2023/03/29 00:55:35;;;;;;;3.27;1.70;;;5.60;42.20;;;;;;5036213;28;48166;-65
2023/03/29 00:58:03;;;;;;;2.60;1.37;;;5.60;42.20;;;;;;5028315;28;46522;-66
2023/03/29 01:00:35;;;;;;;2.60;1.70;;;5.60;42.40;;;;;;5031750;28;46444;-65
2023/03/29 01:03:07;;;;;;;5.73;2.10;;;5.60;42.50;;;;;;5029134;28;46520;-66
2023/03/29 01:05:48;;;;;;;3.90;1.67;;;5.70;42.50;;;;;;5028588;28;46433;-65
2023/03/29 01:08:24;;;;;;;3.30;1.90;;;5.70;42.40;;;;;;5034627;28;46506;-66
2023/03/29 01:11:01;;;;;;;5.17;1.70;;;5.70;42.40;;;;;;5033567;28;46357;-66
2023/03/29 01:13:43;;;;;;;2.87;1.77;;;5.60;42.60;;;;;;5031417;28;46429;-66
2023/03/29 01:16:11;;;;;;;2.97;2.00;;;5.60;42.70;;;;;;5032312;28;46375;-66
2023/03/29 01:18:37;;;;;;;3.20;1.80;;;5.60;42.70;;;;;;5031671;28;45895;-65
2023/03/29 01:21:08;;;;;;;2.20;1.60;;;5.60;43.10;;;;;;5029187;28;46434;-66
2023/03/29 01:23:42;;;;;;;2.30;1.77;;;5.50;43.50;;;;;;5026988;28;45946;-66
2023/03/29 01:26:16;;;;;;;3.10;1.90;;;5.50;43.80;;;;;;5030679;28;46367;-67
2023/03/29 01:28:51;;;;;;;4.33;1.67;;;5.50;43.80;;;;;;5030573;28;46453;-65
2023/03/29 01:31:24;;;;;;;4.73;2.00;;;5.50;43.80;;;;;;5034181;28;45785;-65
2023/03/29 01:34:26;;;;;;;7.60;2.00;;;5.50;43.80;;;;;;5029782;28;46318;-66
2023/03/29 01:37:06;;;;;;;3.90;1.80;;;5.50;43.80;;;;;;5029521;28;46500;-65
2023/03/29 01:39:33;;;;;;;4.33;2.27;;;5.40;44.40;;;;;;5035628;28;46327;-65
2023/03/29 01:42:14;;;;;;;3.90;2.07;;;5.40;44.80;;;;;;5028726;28;45881;-65
2023/03/29 01:45:00;;;;;;;4.33;2.00;;;5.30;45.60;;;;;;5030765;28;46449;-66
2023/03/29 01:47:32;;;;;;;2.90;1.50;;;5.30;46.00;;;;;;5029883;28;47536;-66
2023/03/29 01:50:21;;;;;;;2.40;1.50;;;5.30;46.00;;;;;;5033538;28;46478;-65
2023/03/29 01:52:57;;;;;;;2.00;1.40;;;5.30;45.90;;;;;;5026225;28;46324;-66
2023/03/29 01:55:34;;;;;;;4.90;1.60;;;5.30;46.10;;;;;;5032686;28;46268;-65
2023/03/29 01:58:03;;;;;;;2.30;1.57;;;5.30;46.10;;;;;;5031342;28;46096;-65
2023/03/29 02:00:30;;;;;;;2.07;1.40;;;5.30;46.30;;;;;;5031763;28;46472;-68
2023/03/29 02:02:59;;;;;;;3.50;1.70;;;5.30;46.30;;;;;;5036332;28;46398;-65
2023/03/29 02:05:27;;;;;;;3.10;1.60;;;5.30;46.20;;;;;;5028296;28;46334;-66
2023/03/29 02:07:54;;;;;;;3.77;2.00;;;5.30;46.80;;;;;;5025382;28;46346;-66
2023/03/29 02:10:21;;;;;;;1.80;1.33;;;5.30;47.30;;;;;;5026791;28;46413;-65
2023/03/29 02:12:47;;;;;;;3.17;1.80;;;5.30;47.50;;;;;;5032110;28;46431;-65
2023/03/29 02:15:17;;;;;;;3.73;1.80;;;5.40;47.40;;;;;;5030392;28;45942;-65
2023/03/29 02:17:43;;;;;;;3.00;1.93;;;5.40;47.30;;;;;;5026844;28;46389;-66
2023/03/29 02:20:30;;;;;;;4.57;1.80;;;5.40;47.40;;;;;;5028821;28;46409;-67
2023/03/29 02:23:08;;;;;;;2.13;1.67;;;5.40;47.20;;;;;;5030201;28;46446;-65
2023/03/29 02:25:36;;;;;;;3.63;1.60;;;5.50;46.80;;;;;;5031776;28;46357;-66
2023/03/29 02:28:04;;;;;;;2.13;1.30;;;5.50;46.70;;;;;;5028619;28;46523;-64
2023/03/29 02:30:50;;;;;;;2.17;1.47;;;5.50;46.60;;;;;;5027513;28;46487;-66
2023/03/29 02:33:20;;;;;;;3.40;1.70;;;5.50;46.60;;;;;;5029796;28;46450;-66
2023/03/29 02:35:55;;;;;;;4.53;1.53;;;5.50;46.70;;;;;;5030141;28;46876;-65
2023/03/29 02:38:25;;;;;;;2.40;1.53;;;5.50;46.90;;;;;;5027922;28;46118;-66
2023/03/29 02:40:51;;;;;;;3.20;1.50;;;5.50;47.00;;;;;;5028092;28;46664;-67
2023/03/29 02:43:18;;;;;;;3.93;1.90;;;5.50;47.10;;;;;;5025746;28;45715;-67
2023/03/29 02:45:45;;;;;;;2.20;1.60;;;5.50;47.10;;;;;;5029393;28;46585;-66
2023/03/29 02:48:16;;;;;;;2.13;1.30;;;5.50;47.20;;;;;;5029930;28;46439;-66
2023/03/29 02:50:46;;;;;;;2.83;1.50;;;5.50;47.20;;;;;;5024229;28;46458;-65
2023/03/29 02:53:22;;;;;;;2.90;1.40;;;5.50;47.30;;;;;;5026773;28;46523;-67
2023/03/29 02:55:47;;;;;;;1.90;1.20;;;5.50;47.20;;;;;;5029619;28;46660;-66
2023/03/29 02:58:16;;;;;;;7.10;2.00;;;5.50;47.60;;;;;;5026235;28;46664;-66
2023/03/29 03:00:48;;;;;;;3.10;1.87;;;5.50;47.70;;;;;;5033134;28;46675;-67
2023/03/29 03:03:17;;;;;;;1.53;1.27;;;5.40;47.80;;;;;;5031039;28;46488;-66
2023/03/29 03:05:42;;;;;;;2.63;1.40;;;5.40;48.10;;;;;;5031636;28;46121;-67
2023/03/29 03:08:08;;;;;;;3.07;1.87;;;5.40;48.10;;;;;;5028109;28;46978;-68
2023/03/29 03:10:34;;;;;;;7.10;2.03;;;5.40;48.10;;;;;;5026893;28;46665;-67
2023/03/29 03:13:00;;;;;;;2.40;1.40;;;5.40;48.70;;;;;;5029923;28;46568;-66
2023/03/29 03:15:26;;;;;;;3.30;1.67;;;5.40;48.70;;;;;;5029350;28;46532;-64
2023/03/29 03:17:53;;;;;;;3.93;1.80;;;5.40;48.70;;;;;;5027751;28;46647;-63
2023/03/29 03:20:21;;;;;;;2.10;1.23;;;5.40;48.70;;;;;;5030409;28;46351;-67
2023/03/29 03:22:47;;;;;;;3.67;1.60;;;5.40;48.70;;;;;;5030016;28;46600;-66
2023/03/29 03:25:19;;;;;;;2.30;1.40;;;5.30;48.60;;;;;;5022898;28;46446;-66
2023/03/29 03:27:49;;;;;;;2.40;1.53;;;5.30;48.60;;;;;;5028148;28;46897;-66
2023/03/29 03:30:16;;;;;;;3.13;1.40;;;5.30;48.60;;;;;;5028030;28;45861;-65
2023/03/29 03:32:44;;;;;;;1.90;1.30;;;5.30;48.70;;;;;;5029744;28;46502;-65
2023/03/29 03:35:10;;;;;;;3.47;1.20;;;5.20;49.40;;;;;;5035461;28;46369;-65
2023/03/29 03:37:37;;;;;;;1.90;1.20;;;5.20;50.00;;;;;;5030503;28;46419;-65
2023/03/29 03:40:05;;;;;;;2.23;1.50;;;5.10;50.50;;;;;;5025163;28;46325;-65
2023/03/29 03:42:31;;;;;;;2.20;1.03;;;5.10;50.90;;;;;;5027967;28;45920;-65
2023/03/29 03:44:57;;;;;;;2.70;1.43;;;5.10;50.70;;;;;;5028016;28;46086;-65
2023/03/29 03:47:23;;;;;;;2.80;0.90;;;5.30;50.50;;;;;;5028564;28;46471;-65
2023/03/29 03:49:50;;;;;;;1.40;0.87;;;5.40;50.10;;;;;;5022916;28;46444;-66
2023/03/29 03:52:16;;;;;;;1.40;1.00;;;5.50;49.80;;;;;;5028357;28;46422;-66
2023/03/29 03:54:42;;;;;;;6.00;1.10;;;5.70;49.30;;;;;;5025792;28;46374;-64
2023/03/29 03:57:07;;;;;;;1.97;0.90;;;5.80;49.10;;;;;;5026523;28;49313;-67
2023/03/29 03:59:33;;;;;;;1.40;0.87;;;5.90;49.20;;;;;;5028108;28;46292;-66
2023/03/29 04:02:00;;;;;;;1.77;0.87;;;6.10;49.30;;;;;;5035143;28;46353;-64
2023/03/29 04:04:25;;;;;;;1.33;0.90;;;6.10;49.30;;;;;;5032341;28;46425;-67
2023/03/29 04:06:51;;;;;;;2.30;1.17;;;6.20;49.40;;;;;;5031963;28;46353;-65
2023/03/29 04:09:17;;;;;;;3.50;1.00;;;6.30;49.40;;;;;;5033340;28;46532;-65
2023/03/29 04:11:43;;;;;;;2.00;1.10;;;6.30;49.40;;;;;;5035571;28;46545;-66
2023/03/29 04:14:09;;;;;;;13.10;1.20;;;6.40;49.50;;;;;;5032137;28;46423;-66
2023/03/29 04:16:35;;;;;;;1.40;0.80;;;6.40;49.50;;;;;;5035173;28;46400;-65
2023/03/29 04:19:01;;;;;;;4.00;0.90;;;6.40;49.50;;;;;;5037052;28;46377;-66
2023/03/29 04:21:26;;;;;;;3.90;1.33;;;6.40;49.50;;;;;;5036219;28;46473;-64
2023/03/29 04:23:52;;;;;;;3.80;1.10;;;6.40;49.50;;;;;;5033413;28;46276;-66
2023/03/29 04:26:18;;;;;;;2.50;1.20;;;6.40;49.50;;;;;;5037089;28;46354;-65
2023/03/29 04:28:43;;;;;;;3.70;1.07;;;6.40;49.50;;;;;;5036764;28;46276;-65
2023/03/29 04:31:13;;;;;;;3.20;1.33;;;6.40;49.50;;;;;;5033171;28;46285;-66
2023/03/29 04:33:39;;;;;;;2.90;1.07;;;6.40;49.50;;;;;;5036578;28;45892;-65
2023/03/29 04:36:05;;;;;;;2.70;0.93;;;6.40;49.50;;;;;;5036880;28;47181;-67
2023/03/29 04:38:34;;;;;;;1.60;1.00;;;6.40;49.50;;;;;;5037606;28;46371;-65
2023/03/29 04:41:02;;;;;;;1.73;0.93;;;6.40;49.50;;;;;;5030837;28;46279;-66
2023/03/29 04:43:28;;;;;;;1.87;1.23;;;6.40;49.60;;;;;;5034427;28;46455;-65
2023/03/29 04:45:55;;;;;;;2.47;1.10;;;6.40;49.90;;;;;;5030934;28;47135;-66
2023/03/29 04:48:21;;;;;;;2.10;1.00;;;6.40;49.60;;;;;;5029882;28;46504;-66
2023/03/29 04:50:47;;;;;;;2.03;0.93;;;6.40;50.10;;;;;;5035956;28;45793;-65
2023/03/29 04:53:13;;;;;;;3.00;1.10;;;6.40;50.10;;;;;;5037103;28;46368;-66
2023/03/29 04:55:38;;;;;;;2.03;1.03;;;6.40;50.20;;;;;;5033707;28;47590;-66
2023/03/29 04:58:04;;;;;;;1.40;0.90;;;6.30;51.50;;;;;;5032543;28;45775;-66
2023/03/29 05:00:30;;;;;;;3.47;1.03;;;6.40;50.40;;;;;;5034996;28;46462;-66
2023/03/29 05:02:56;;;;;;;9.13;1.20;;;6.40;50.20;;;;;;5033751;28;46259;-66
2023/03/29 05:05:22;;;;;;;2.17;1.07;;;6.40;50.00;;;;;;5036343;28;46395;-65
2023/03/29 05:07:48;;;;;;;2.50;1.37;;;6.50;49.70;;;;;;5034263;28;46595;-64
2023/03/29 05:10:14;;;;;;;1.67;1.03;;;6.50;49.60;;;;;;5035327;28;46442;-66
2023/03/29 05:12:39;;;;;;;1.70;1.10;;;6.50;49.60;;;;;;5030355;28;45882;-65
2023/03/29 05:15:07;;;;;;;12.03;1.63;;;6.50;50.80;;;;;;5028994;28;48101;-65
2023/03/29 05:17:33;;;;;;;4.23;1.30;;;6.60;49.70;;;;;;5028455;28;46425;-65
2023/03/29 05:19:59;;;;;;;2.30;1.23;;;6.60;49.70;;;;;;5031273;28;46310;-67
2023/03/29 05:22:27;;;;;;;1.67;1.10;;;6.60;49.70;;;;;;5028725;28;46447;-66
2023/03/29 05:24:53;;;;;;;2.73;1.37;;;6.60;49.70;;;;;;5032820;28;46518;-66
2023/03/29 05:27:21;;;;;;;3.43;1.07;;;6.60;49.70;;;;;;5034905;28;46429;-65
2023/03/29 05:29:47;;;;;;;2.30;1.33;;;6.70;49.80;;;;;;5027740;28;45852;-65
2023/03/29 05:32:14;;;;;;;4.17;1.20;;;6.70;49.80;;;;;;5028216;28;46379;-66
2023/03/29 05:34:40;;;;;;;1.90;0.87;;;6.70;49.90;;;;;;5031045;28;46650;-66
2023/03/29 05:37:06;;;;;;;3.53;1.20;;;6.70;49.90;;;;;;5028797;28;46611;-65
2023/03/29 05:39:32;;;;;;;1.50;1.00;;;6.80;49.90;;;;;;5030330;28;46424;-66
2023/03/29 05:41:58;;;;;;;1.70;1.03;;;6.80;49.90;;;;;;5032250;28;46455;-65
2023/03/29 05:44:24;;;;;;;2.27;0.90;;;6.90;50.00;;;;;;5037677;28;46461;-65
2023/03/29 05:46:50;;;;;;;2.33;1.20;;;6.90;50.00;;;;;;5030231;28;46232;-65
2023/03/29 05:49:16;;;;;;;3.50;1.00;;;6.90;50.00;;;;;;5031805;28;46417;-67
2023/03/29 05:51:44;;;;;;;1.73;0.80;;;7.00;50.00;;;;;;5033491;28;46984;-66
2023/03/29 05:54:10;;;;;;;4.30;1.07;;;7.00;50.10;;;;;;5029191;28;47037;-66
2023/03/29 05:56:36;;;;;;;5.20;2.40;;;7.10;50.10;;;;;;5032489;28;46492;-65
2023/03/29 05:59:02;;;;;;;3.10;1.90;;;7.20;49.90;;;;;;5035168;28;46193;-64
2023/03/29 06:01:29;;;;;;;8.40;1.80;;;7.20;49.80;;;;;;5031369;28;46108;-64
2023/03/29 06:03:56;;;;;;;2.33;1.20;;;7.30;49.70;;;;;;5026583;28;47096;-65
2023/03/29 06:06:22;;;;;;;2.83;1.40;;;7.30;49.60;;;;;;5032549;28;46316;-64
2023/03/29 06:08:49;;;;;;;2.97;1.03;;;7.50;49.40;;;;;;5032417;28;45847;-65
2023/03/29 06:11:15;;;;;;;2.63;1.20;;;7.50;49.20;;;;;;5029677;28;46625;-65
2023/03/29 06:13:41;;;;;;;1.50;1.10;;;7.60;49.10;;;;;;5030666;28;46516;-65
2023/03/29 06:16:11;;;;;;;3.53;1.17;;;7.70;48.80;;;;;;5041751;28;46477;-67
2023/03/29 06:18:38;;;;;;;3.70;1.90;;;7.90;48.60;;;;;;5028824;28;45953;-67
2023/03/29 06:21:05;;;;;;;3.10;1.10;;;8.20;48.10;;;;;;5029447;28;46438;-66
2023/03/29 06:23:31;;;;;;;2.90;1.50;;;8.50;47.60;;;;;;5032919;28;46544;-67
2023/03/29 06:25:58;;;;;;;3.20;1.20;;;8.70;47.20;;;;;;5028403;28;46492;-66
2023/03/29 06:28:25;;;;;;;3.37;1.30;;;8.80;46.80;;;;;;5028450;28;46456;-66
2023/03/29 06:30:52;;;;;;;3.40;1.63;;;8.90;46.70;;;;;;5028315;28;46313;-66
2023/03/29 06:33:19;;;;;;;7.87;4.10;;;8.80;46.40;;;;;;5028532;28;48286;-66
2023/03/29 06:35:46;;;;;;;3.30;1.37;;;8.90;46.50;;;;;;5027419;28;46392;-68
2023/03/29 06:38:13;;;;;;;2.83;1.30;;;8.90;46.40;;;;;;5029663;28;46789;-66
2023/03/29 06:40:40;;;;;;;4.63;1.50;;;9.00;46.00;;;;;;5032787;28;46780;-65
2023/03/29 06:43:06;;;;;;;4.50;1.13;;;9.00;45.70;;;;;;5025595;28;46346;-68
2023/03/29 06:45:34;;;;;;;6.13;1.20;;;9.00;45.80;;;;;;5028061;28;46370;-67
2023/03/29 06:48:02;;;;;;;2.10;1.20;;;8.90;45.80;;;;;;5027387;28;46478;-67
2023/03/29 06:50:27;;;;;;;2.37;1.30;;;8.90;45.80;;;;;;5030501;28;46390;-66
2023/03/29 06:52:53;;;;;;;2.50;1.50;;;8.90;45.80;;;;;;5026989;28;46750;-68
2023/03/29 06:55:24;;;;;;;1.60;0.90;;;8.80;45.80;;;;;;5024776;28;46091;-66
2023/03/29 06:57:52;;;;;;;2.43;1.17;;;8.90;45.90;;;;;;5028880;28;46502;-67
2023/03/29 07:00:26;;;;;;;2.80;1.30;;;8.90;45.60;;;;;;5030807;28;46657;-68
2023/03/29 07:02:53;;;;;;;4.40;1.30;;;9.00;45.40;;;;;;5027459;28;46421;-67
2023/03/29 07:05:19;;;;;;;1.97;1.07;;;9.10;45.10;;;;;;5035089;28;47013;-65
2023/03/29 07:07:55;;;;;;;2.83;1.10;;;9.10;44.80;;;;;;5026345;28;46628;-67
2023/03/29 07:10:31;;;;;;;5.03;1.80;;;9.20;44.60;;;;;;5029486;28;46440;-66
2023/03/29 07:13:00;;;;;;;5.10;1.47;;;9.30;44.30;;;;;;5028115;28;47051;-66
2023/03/29 07:15:27;;;;;;;2.93;1.40;;;9.30;44.00;;;;;;5029880;28;46425;-67
2023/03/29 07:17:53;;;;;;;4.17;2.20;;;9.40;43.80;;;;;;5027788;28;46339;-67
2023/03/29 07:20:23;;;;;;;3.57;1.40;;;9.50;43.80;;;;;;5027370;28;46457;-68
2023/03/29 07:22:52;;;;;;;2.60;1.27;;;9.50;43.50;;;;;;5030721;28;46300;-67
2023/03/29 07:25:20;;;;;;;6.97;1.10;;;9.50;43.30;;;;;;5026746;28;46550;-68
2023/03/29 07:27:46;;;;;;;2.17;1.10;;;9.60;43.00;;;;;;5027711;28;46537;-66
2023/03/29 07:30:15;;;;;;;2.77;1.00;;;9.70;42.80;;;;;;5027123;28;45899;-67
2023/03/29 07:32:43;;;;;;;3.27;1.00;;;9.90;42.50;;;;;;5028669;28;46501;-66
2023/03/29 07:35:10;;;;;;;2.73;1.20;;;10.10;41.10;;;;;;5034721;28;46441;-68
2023/03/29 07:37:37;;;;;;;2.33;1.10;;;10.20;40.50;;;;;;5029514;28;46071;-67
2023/03/29 07:40:10;;;;;;;4.03;1.20;;;10.30;40.00;;;;;;5024817;28;46611;-68
2023/03/29 07:42:35;;;;;;;4.90;1.37;;;10.40;40.00;;;;;;5028479;28;46500;-69
2023/03/29 07:45:03;;;;;;;4.10;1.20;;;10.40;40.00;;;;;;5025099;28;46511;-67
2023/03/29 07:47:29;;;;;;;2.47;1.30;;;10.30;40.00;;;;;;5028768;28;46426;-67
2023/03/29 07:49:55;;;;;;;3.80;1.30;;;10.40;40.00;;;;;;5030315;28;46889;-65
2023/03/29 07:52:21;;;;;;;3.10;1.10;;;10.40;39.90;;;;;;5027718;28;46466;-66
2023/03/29 07:54:47;;;;;;;3.30;1.43;;;10.40;39.60;;;;;;5026881;28;46576;-67
2023/03/29 07:57:13;;;;;;;3.30;1.53;;;10.50;40.40;;;;;;5023955;28;46424;-68
2023/03/29 07:59:38;;;;;;;4.03;1.47;;;10.60;39.00;;;;;;5030911;28;46610;-66
2023/03/29 08:02:05;;;;;;;5.17;1.30;;;10.70;39.10;;;;;;5030927;28;46606;-68
2023/03/29 08:04:31;;;;;;;4.00;1.93;;;10.70;39.10;;;;;;5028864;28;46284;-67
2023/03/29 08:06:57;;;;;;;4.87;1.27;;;10.80;39.20;;;;;;5032707;28;46434;-67
2023/03/29 08:09:22;;;;;;;2.87;1.30;;;10.90;38.70;;;;;;5029946;28;46383;-67
2023/03/29 08:11:48;;;;;;;4.93;1.50;;;11.20;38.10;;;;;;5022195;28;46979;-68
2023/03/29 08:14:14;;;;;;;3.87;1.80;;;11.60;37.20;;;;;;5025885;28;46378;-68
2023/03/29 08:16:40;;;;;;;2.27;1.30;;;11.90;36.60;;;;;;5027943;28;46485;-68
2023/03/29 08:19:06;;;;;;;2.63;1.67;;;12.40;35.60;;;;;;5027626;28;46459;-69
2023/03/29 08:21:31;;;;;;;4.73;1.17;;;12.70;34.80;;;;;;5027489;28;46323;-67
2023/03/29 08:23:57;;;;;;;9.03;1.27;;;13.00;34.30;;;;;;5031238;28;46451;-68
2023/03/29 08:26:23;;;;;;;3.40;1.40;;;13.30;33.70;;;;;;5028335;28;46546;-67
2023/03/29 08:28:48;;;;;;;4.13;1.27;;;13.40;33.20;;;;;;5026706;28;46438;-69
2023/03/29 08:31:14;;;;;;;3.67;1.50;;;13.40;32.80;;;;;;5027476;28;47264;-66
2023/03/29 08:33:42;;;;;;;4.57;1.50;;;13.30;33.00;;;;;;5026329;28;46386;-66
2023/03/29 08:36:08;;;;;;;3.90;1.63;;;13.20;33.10;;;;;;5024360;28;46548;-65
2023/03/29 08:38:34;;;;;;;8.77;1.50;;;13.10;33.20;;;;;;5026722;28;46367;-65
2023/03/29 08:41:00;;;;;;;4.90;1.33;;;13.00;33.30;;;;;;5028526;28;46748;-68
2023/03/29 08:43:44;;;;;;;7.00;1.80;;;12.90;33.10;;;;;;5026595;28;46453;-64
2023/03/29 08:46:18;;;;;;;3.67;1.27;;;12.90;33.00;;;;;;5027651;28;46541;-67
2023/03/29 08:48:52;;;;;;;2.43;1.30;;;12.70;32.70;;;;;;5031796;28;46459;-67
2023/03/29 08:51:41;;;;;;;2.83;1.30;;;12.70;32.60;;;;;;5031624;28;46475;-66
2023/03/29 08:54:20;;;;;;;5.00;1.30;;;12.70;32.10;;;;;;5030559;28;46544;-66
2023/03/29 08:56:47;;;;;;;3.30;1.40;;;12.80;31.90;;;;;;5026439;28;46722;-65
2023/03/29 08:59:23;;;;;;;8.80;2.30;;;12.80;31.90;;;;;;5028700;28;46369;-66
2023/03/29 09:01:52;;;;;;;3.70;1.60;;;12.70;30.80;;;;;;5035002;28;48264;-66
2023/03/29 09:04:26;;;;;;;3.20;1.50;;;12.70;31.10;;;;;;5027979;28;45895;-67
2023/03/29 09:06:53;;;;;;;4.40;1.00;;;12.80;30.40;;;;;;5029079;28;46503;-66
2023/03/29 09:09:21;;;;;;;5.50;1.40;;;12.90;30.50;;;;;;5029358;28;46404;-66
2023/03/29 09:12:05;;;;;;;3.87;1.63;;;13.10;29.90;;;;;;5030101;28;46577;-67
2023/03/29 09:15:03;;;;;;;6.03;1.70;;;13.20;29.70;;;;;;5031135;28;46369;-67
2023/03/29 09:17:46;;;;;;;2.53;1.17;;;13.40;29.30;;;;;;5033324;28;46405;-67
2023/03/29 09:20:42;;;;;;;4.17;1.73;;;13.40;29.40;;;;;;5029011;28;46779;-65
2023/03/29 09:23:21;;;;;;;3.67;1.50;;;13.40;28.50;;;;;;5037428;28;48251;-68
2023/03/29 09:25:54;;;;;;;2.80;1.20;;;13.40;28.50;;;;;;5030957;28;46449;-66
2023/03/29 09:28:37;;;;;;;5.13;1.50;;;13.40;28.50;;;;;;5025684;28;46570;-64
2023/03/29 09:31:20;;;;;;;3.53;1.40;;;13.60;28.60;;;;;;5033104;28;46808;-67
2023/03/29 09:33:52;;;;;;;4.90;1.23;;;13.70;28.70;;;;;;5032456;28;48113;-67
2023/03/29 09:36:49;;;;;;;4.07;1.60;;;13.70;28.70;;;;;;5029711;28;46447;-67
2023/03/29 09:39:15;;;;;;;3.07;1.30;;;13.60;28.00;;;;;;5028891;28;46348;-66
2023/03/29 09:42:03;;;;;;;5.60;1.43;;;13.60;27.00;;;;;;5030361;28;46782;-66
2023/03/29 09:44:45;;;;;;;2.60;1.20;;;13.50;27.40;;;;;;5024920;28;47217;-66
2023/03/29 09:47:18;;;;;;;5.63;1.57;;;13.60;26.60;;;;;;5026855;28;45839;-67
2023/03/29 09:49:48;;;;;;;2.47;1.13;;;13.30;27.60;;;;;;5029362;28;46415;-67
2023/03/29 09:52:16;;;;;;;2.70;1.20;;;13.30;26.80;;;;;;5035488;28;45866;-66
2023/03/29 09:54:42;;;;;;;3.87;1.50;;;13.30;26.00;;;;;;5029631;28;47153;-67
2023/03/29 09:57:16;;;;;;;3.73;1.50;;;13.30;26.40;;;;;;5027263;28;46402;-66
2023/03/29 09:59:43;;;;;;;2.70;1.40;;;13.30;26.60;;;;;;5027209;28;46456;-66
2023/03/29 10:02:11;;;;;;;2.50;1.50;;;13.30;26.30;;;;;;5029331;28;46036;-65
2023/03/29 10:04:41;;;;;;;6.77;1.37;;;13.40;26.30;;;;;;5030340;28;46325;-65
2023/03/29 10:07:16;;;;;;;4.80;1.50;;;13.70;26.20;;;;;;5035771;28;45872;-65
2023/03/29 10:09:45;;;;;;;3.77;1.63;;;13.90;25.50;;;;;;5036261;28;46645;-67
2023/03/29 10:12:15;;;;;;;2.57;1.33;;;14.20;25.30;;;;;;5036422;28;46656;-66
2023/03/29 10:14:52;;;;;;;3.43;1.50;;;14.30;24.80;;;;;;5035509;28;46263;-65
2023/03/29 10:17:21;;;;;;;2.97;1.40;;;14.40;24.70;;;;;;5039327;28;46460;-65
2023/03/29 10:19:57;;;;;;;3.33;1.30;;;14.40;24.80;;;;;;5033707;28;46413;-66
2023/03/29 10:22:27;;;;;;;3.53;1.90;;;14.60;24.50;;;;;;5028101;28;46370;-64
2023/03/29 10:24:56;;;;;;;4.73;1.37;;;14.80;24.30;;;;;;5028189;28;47868;-61
2023/03/29 10:27:28;;;;;;;3.30;1.20;;;14.80;23.60;;;;;;5030158;28;46381;-65
2023/03/29 10:29:57;;;;;;;5.90;1.30;;;14.90;23.30;;;;;;5030319;28;46373;-65
2023/03/29 10:32:35;;;;;;;3.70;1.50;;;14.50;21.40;;;;;;5029262;28;46572;-64
2023/03/29 10:35:18;;;;;;;3.00;1.40;;;14.40;22.30;;;;;;5026539;28;46500;-65
2023/03/29 10:37:49;;;;;;;6.90;1.30;;;14.60;22.40;;;;;;5029661;28;45821;-65
2023/03/29 10:40:20;;;;;;;6.33;1.33;;;14.80;22.40;;;;;;5026406;28;46286;-66
2023/03/29 10:42:56;;;;;;;4.30;1.50;;;14.60;21.10;;;;;;5029184;28;45907;-65
2023/03/29 10:45:27;;;;;;;5.20;1.43;;;14.20;20.60;;;;;;5029122;28;47222;-66
2023/03/29 10:47:57;;;;;;;3.00;1.10;;;14.10;21.70;;;;;;5029467;28;46655;-66
2023/03/29 10:50:31;;;;;;;5.03;2.50;;;14.10;21.90;;;;;;5028894;28;45964;-66
2023/03/29 10:52:56;;;;;;;3.10;1.33;;;14.20;22.10;;;;;;5030163;28;47415;-66
2023/03/29 10:55:31;;;;;;;4.83;1.40;;;14.60;22.10;;;;;;5030320;28;46437;-67
2023/03/29 10:58:06;;;;;;;2.73;1.27;;;15.00;21.70;;;;;;5025029;28;46557;-66
2023/03/29 11:00:58;;;;;;;3.20;1.23;;;15.30;21.00;;;;;;5027051;28;46465;-68
2023/03/29 11:03:53;;;;;;;3.63;1.30;;;15.60;21.30;;;;;;5026824;28;46646;-65
2023/03/29 11:06:25;;;;;;;5.20;1.07;;;15.90;20.90;;;;;;5026237;28;46153;-66
2023/03/29 11:08:59;;;;;;;3.70;1.43;;;15.70;19.40;;;;;;5027159;28;46486;-66
2023/03/29 11:11:55;;;;;;;7.00;1.40;;;15.70;20.00;;;;;;5025654;28;46449;-65
2023/03/29 11:14:20;;;;;;;4.60;1.30;;;15.70;19.40;;;;;;5024778;28;46364;-65
2023/03/29 11:16:55;;;;;;;6.00;1.50;;;15.40;19.10;;;;;;5033562;28;46469;-66
2023/03/29 11:19:27;;;;;;;4.03;1.50;;;15.20;20.20;;;;;;5029194;28;45794;-66
2023/03/29 11:22:02;;;;;;;3.70;1.40;;;15.00;20.50;;;;;;5044728;28;47229;-66
2023/03/29 11:24:47;;;;;;;2.67;1.20;;;14.50;20.70;;;;;;5032051;28;46654;-66
2023/03/29 11:27:31;;;;;;;3.70;1.40;;;14.20;21.10;;;;;;5024736;28;47947;-67
2023/03/29 11:30:14;;;;;;;4.23;1.50;;;14.30;20.90;;;;;;5026180;28;46483;-66
2023/03/29 11:33:00;;;;;;;3.73;1.53;;;14.50;21.00;;;;;;5028296;28;46619;-65
2023/03/29 11:35:41;;;;;;;3.90;1.40;;;14.60;21.30;;;;;;5029216;28;46646;-66
2023/03/29 11:38:31;;;;;;;2.83;1.30;;;14.40;21.90;;;;;;5030052;28;46638;-65
2023/03/29 11:41:20;;;;;;;3.50;1.40;;;14.30;21.50;;;;;;5034225;28;46434;-66
2023/03/29 11:43:51;;;;;;;7.20;2.00;;;14.70;21.40;;;;;;5027671;28;46449;-66
2023/03/29 11:46:37;;;;;;;3.40;1.50;;;14.80;21.30;;;;;;5028538;28;46379;-65
2023/03/29 11:49:18;;;;;;;2.50;1.30;;;14.90;20.60;;;;;;5027295;28;46371;-65
2023/03/29 11:51:55;;;;;;;3.43;1.50;;;14.90;21.20;;;;;;5028160;28;46334;-65
2023/03/29 11:54:43;;;;;;;4.43;1.47;;;14.70;21.40;;;;;;5025556;28;46483;-66
2023/03/29 11:57:27;;;;;;;2.60;1.30;;;14.60;22.10;;;;;;5028342;28;46489;-66
2023/03/29 12:00:04;;;;;;;3.17;1.40;;;14.40;21.90;;;;;;5028217;28;47040;-65
2023/03/29 12:02:38;;;;;;;5.27;1.63;;;14.40;22.30;;;;;;5028904;28;46427;-65
2023/03/29 12:05:20;;;;;;;5.87;1.33;;;14.60;22.40;;;;;;5034069;28;46464;-65
2023/03/29 12:07:55;;;;;;;4.30;1.80;;;14.70;21.30;;;;;;5030763;28;46667;-65
2023/03/29 12:10:27;;;;;;;4.70;1.80;;;14.70;21.50;;;;;;5029175;28;46366;-64
2023/03/29 12:13:22;;;;;;;6.23;1.70;;;15.00;21.40;;;;;;5028611;28;46402;-65
2023/03/29 12:15:54;;;;;;;5.10;1.50;;;15.40;20.80;;;;;;5025346;28;46388;-65
2023/03/29 12:18:29;;;;;;;3.63;1.37;;;15.70;20.90;;;;;;5022902;28;46450;-67
2023/03/29 12:21:03;;;;;;;3.03;1.43;;;15.90;20.30;;;;;;5033922;28;46664;-68
2023/03/29 12:23:32;;;;;;;4.87;1.80;;;16.20;19.70;;;;;;5044895;28;46527;-66
2023/03/29 12:25:58;;;;;;;3.20;1.40;;;16.40;19.90;;;;;;5042775;28;46433;-64
2023/03/29 12:28:33;;;;;;;5.00;1.60;;;16.70;20.10;;;;;;5035134;28;46425;-66
2023/03/29 12:31:10;;;;;;;3.17;1.57;;;16.60;20.00;;;;;;5043059;28;46586;-65
2023/03/29 12:33:50;;;;;;;3.93;1.50;;;16.80;19.10;;;;;;5035554;28;46453;-64
2023/03/29 12:36:31;;;;;;;3.43;1.33;;;16.80;18.00;;;;;;5039118;28;46353;-64
2023/03/29 12:38:57;;;;;;;6.53;1.27;;;16.40;17.50;;;;;;5042488;28;46594;-66
2023/03/29 12:41:23;;;;;;;3.13;1.33;;;16.40;17.50;;;;;;5045416;28;46406;-64
2023/03/29 12:43:49;;;;;;;5.87;1.50;;;16.10;17.30;;;;;;5042801;28;46930;-66
2023/03/29 12:46:23;;;;;;;4.10;1.43;;;16.00;17.40;;;;;;5044257;28;46643;-65
2023/03/29 12:48:53;;;;;;;4.37;1.37;;;16.30;17.80;;;;;;5044817;28;46481;-66
2023/03/29 12:51:22;;;;;;;3.90;1.50;;;16.30;17.20;;;;;;5041213;28;46754;-66
2023/03/29 12:53:54;;;;;;;6.00;1.37;;;16.00;17.30;;;;;;5043048;28;46319;-66
2023/03/29 12:56:22;;;;;;;3.03;1.37;;;16.00;17.60;;;;;;5044496;28;45906;-67
2023/03/29 12:58:53;;;;;;;3.70;1.67;;;16.10;17.70;;;;;;5041284;28;46445;-68
2023/03/29 13:01:27;;;;;;;4.17;1.20;;;16.40;17.80;;;;;;5038638;28;49687;-65
2023/03/29 13:03:59;;;;;;;3.23;1.30;;;16.70;17.50;;;;;;5037577;28;46496;-67
2023/03/29 13:06:28;;;;;;;2.93;1.33;;;16.80;17.00;;;;;;5043239;28;46012;-67
2023/03/29 13:09:00;;;;;;;6.10;1.53;;;16.80;16.60;;;;;;5041170;28;46404;-65
2023/03/29 13:11:28;;;;;;;2.80;1.10;;;16.90;16.50;;;;;;5042358;28;47146;-67